Language: 


Des rapports , des résumés tant et plus, au choix de chacun....


Données Historiques de Météogheer
Journalier Rapport pour Février 1, 2018 Unitée:  Les deux    Impériale   Métrique
Suivant Jour »
Journalier Hebdomadaire Mensuel Annuel Sur mesure
  Max: Min: Moyenne:
Température: 47.3 °F /  8.5 °C 33.6 °F /  0.9 °C 39.2 °F /  4 °C
Point de rosée: 42.8 °F /  6.0 °C 32 °F /  0.0 °C 36.5 °F /  2.5 °C
Humidité: 98% 61% 89%
Vent: 20.1mph /  32.3km/h - 5.4mph /  8.7km/h
Rafales: 23mph /  37.0km/h - -
Vent- - WSW
Pression: 29.6 in /  1003.9 hPa 29.5 in /  997.9 hPa -
Pluie: 0.14 in /  3.6 mm    
Historical Graphs
 
 
Données tabulaires pour Février 1, 2018
Heure Température Point de rosée Pression Vent Vent Rafales Humidité Pluie Taux (Horaire) Conditions
00:03 36 °F /  2.2 °C 33.8 °F /  1.0 °C 29.6in /  1001.9hPa West 3.8mph /  6.1km/h 5.4mph /  8.7km/h 92% 0in /  0.0mm
00:08 36 °F /  2.2 °C 33.8 °F /  1.0 °C 29.6in /  1001.9hPa West 4.9mph /  7.9km/h 6mph /  9.7km/h 92% 0in /  0.0mm
00:13 36 °F /  2.2 °C 33.8 °F /  1.0 °C 29.6in /  1001.9hPa WSW 2mph /  3.2km/h 6mph /  9.7km/h 91% 0in /  0.0mm
00:18 35.8 °F /  2.1 °C 33.8 °F /  1.0 °C 29.6in /  1001.9hPa Calm   6.5mph /  10.5km/h 91% 0in /  0.0mm
00:23 35.8 °F /  2.1 °C 33.8 °F /  1.0 °C 29.6in /  1001.9hPa Calm   6.5mph /  10.5km/h 91% 0in /  0.0mm
00:28 35.6 °F /  2.0 °C 33.8 °F /  1.0 °C 29.6in /  1001.9hPa Calm     91% 0in /  0.0mm
00:33 35.2 °F /  1.8 °C 32 °F /  0.0 °C 29.6in /  1000.9hPa Calm     90% 0in /  0.0mm
00:38 34.9 °F /  1.6 °C 32 °F /  0.0 °C 29.6in /  1000.9hPa Calm     90% 0in /  0.0mm
00:43 34.3 °F /  1.3 °C 32 °F /  0.0 °C 29.6in /  1000.9hPa Calm     89% 0in /  0.0mm
00:48 34.3 °F /  1.3 °C 32 °F /  0.0 °C 29.6in /  1000.9hPa Calm     90% 0in /  0.0mm
00:53 34.3 °F /  1.3 °C 32 °F /  0.0 °C 29.6in /  1000.9hPa Calm   4.3mph /  6.9km/h 90% 0in /  0.0mm
00:58 34.3 °F /  1.3 °C 32 °F /  0.0 °C 29.6in /  1000.9hPa WSW 5.6mph /  9.0km/h 5.6mph /  9.0km/h 91% 0in /  0.0mm
01:03 34.5 °F /  1.4 °C 32 °F /  0.0 °C 29.6in /  1000.9hPa WSW 5.4mph /  8.7km/h 5.8mph /  9.3km/h 92% 0in /  0.0mm
01:08 34.5 °F /  1.4 °C 32 °F /  0.0 °C 29.6in /  1000.9hPa WSW 5.4mph /  8.7km/h 6mph /  9.7km/h 92% 0in /  0.0mm
01:13 34.5 °F /  1.4 °C 33.8 °F /  1.0 °C 29.6in /  1000.9hPa Calm   6mph /  9.7km/h 93% 0in /  0.0mm
01:18 34.5 °F /  1.4 °C 33.8 °F /  1.0 °C 29.6in /  1000.9hPa WSW 3.1mph /  5.0km/h 5.8mph /  9.3km/h 93% 0in /  0.0mm
01:23 34.7 °F /  1.5 °C 33.8 °F /  1.0 °C 29.6in /  1000.9hPa Calm   3.1mph /  5.0km/h 93% 0in /  0.0mm
01:28 34.5 °F /  1.4 °C 33.8 °F /  1.0 °C 29.6in /  1000.9hPa Calm   3.1mph /  5.0km/h 93% 0in /  0.0mm
01:33 34.5 °F /  1.4 °C 33.8 °F /  1.0 °C 29.6in /  1000.9hPa Calm   0.9mph /  1.4km/h 93% 0in /  0.0mm
01:38 34.3 °F /  1.3 °C 33.8 °F /  1.0 °C 29.6in /  1000.9hPa Calm   3.6mph /  5.8km/h 93% 0in /  0.0mm
01:43 34.2 °F /  1.2 °C 33.8 °F /  1.0 °C 29.6in /  1000.9hPa Calm   3.6mph /  5.8km/h 93% 0in /  0.0mm
01:48 34.3 °F /  1.3 °C 33.8 °F /  1.0 °C 29.6in /  1000.9hPa Calm   3.6mph /  5.8km/h 93% 0in /  0.0mm
01:53 34.5 °F /  1.4 °C 33.8 °F /  1.0 °C 29.6in /  1000.9hPa Calm   4.5mph /  7.2km/h 94% 0in /  0.0mm
01:59 34.7 °F /  1.5 °C 33.8 °F /  1.0 °C 29.6in /  1000.9hPa SSW 5.4mph /  8.7km/h 5.4mph /  8.7km/h 95% 0in /  0.0mm
02:04 34.9 °F /  1.6 °C 33.8 °F /  1.0 °C 29.6in /  1000.9hPa SSW 1.1mph /  1.8km/h 5.4mph /  8.7km/h 95% 0in /  0.0mm
02:09 34.9 °F /  1.6 °C 33.8 °F /  1.0 °C 29.6in /  1000.9hPa Calm   5.4mph /  8.7km/h 95% 0in /  0.0mm
02:14 34.9 °F /  1.6 °C 33.8 °F /  1.0 °C 29.6in /  1000.9hPa Calm   2.9mph /  4.7km/h 95% 0in /  0.0mm
02:19 34.7 °F /  1.5 °C 33.8 °F /  1.0 °C 29.6in /  1000.9hPa Calm   0.9mph /  1.4km/h 95% 0in /  0.0mm
02:24 34.5 °F /  1.4 °C 33.8 °F /  1.0 °C 29.6in /  1000.9hPa Calm   2mph /  3.2km/h 94% 0in /  0.0mm
02:29 34.3 °F /  1.3 °C 33.8 °F /  1.0 °C 29.5in /  999.9hPa West 2.5mph /  4.0km/h 2.7mph /  4.3km/h 94% 0in /  0.0mm
02:34 34 °F /  1.1 °C 32 °F /  0.0 °C 29.5in /  999.9hPa Calm   2.7mph /  4.3km/h 93% 0in /  0.0mm
02:39 33.6 °F /  0.9 °C 32 °F /  0.0 °C 29.5in /  999.9hPa Calm   4.7mph /  7.6km/h 93% 0in /  0.0mm
02:44 34 °F /  1.1 °C 32 °F /  0.0 °C 29.5in /  999.9hPa Calm   4.7mph /  7.6km/h 94% 0in /  0.0mm
02:49 34.3 °F /  1.3 °C 33.8 °F /  1.0 °C 29.5in /  999.9hPa WSW 4.5mph /  7.2km/h 4.5mph /  7.2km/h 95% 0in /  0.0mm
02:54 34.5 °F /  1.4 °C 33.8 °F /  1.0 °C 29.5in /  999.9hPa Calm   4.5mph /  7.2km/h 96% 0in /  0.0mm
02:59 34.5 °F /  1.4 °C 33.8 °F /  1.0 °C 29.5in /  999.9hPa Calm   4.5mph /  7.2km/h 96% 0in /  0.0mm
03:04 34.3 °F /  1.3 °C 33.8 °F /  1.0 °C 29.5in /  999.9hPa SSW 2.9mph /  4.7km/h 3.4mph /  5.5km/h 96% 0in /  0.0mm
03:09 34.3 °F /  1.3 °C 33.8 °F /  1.0 °C 29.5in /  999.9hPa Calm   4.7mph /  7.6km/h 96% 0in /  0.0mm
03:14 34.7 °F /  1.5 °C 33.8 °F /  1.0 °C 29.5in /  999.9hPa Calm   4.7mph /  7.6km/h 96% 0in /  0.0mm
03:19 34.9 °F /  1.6 °C 33.8 °F /  1.0 °C 29.5in /  999.9hPa Calm   3.8mph /  6.1km/h 97% 0in /  0.0mm
03:24 34.9 °F /  1.6 °C 33.8 °F /  1.0 °C 29.5in /  999.9hPa SSW 1.6mph /  2.6km/h 3.8mph /  6.1km/h 97% 0in /  0.0mm
03:29 34.9 °F /  1.6 °C 33.8 °F /  1.0 °C 29.5in /  998.9hPa Calm   3.8mph /  6.1km/h 97% 0in /  0.0mm
03:34 34.9 °F /  1.6 °C 33.8 °F /  1.0 °C 29.5in /  998.9hPa SSW 3.4mph /  5.5km/h 3.4mph /  5.5km/h 96% 0in /  0.0mm
03:39 34.9 °F /  1.6 °C 33.8 °F /  1.0 °C 29.5in /  998.9hPa Calm   3.6mph /  5.8km/h 96% 0in /  0.0mm
03:44 34.5 °F /  1.4 °C 33.8 °F /  1.0 °C 29.5in /  998.9hPa SSW 3.6mph /  5.8km/h 4.9mph /  7.9km/h 96% 0in /  0.0mm
03:49 34.5 °F /  1.4 °C 33.8 °F /  1.0 °C 29.5in /  998.9hPa South 2.9mph /  4.7km/h 4.9mph /  7.9km/h 96% 0in /  0.0mm
03:54 34.3 °F /  1.3 °C 33.8 °F /  1.0 °C 29.5in /  998.9hPa South 2.5mph /  4.0km/h 4.9mph /  7.9km/h 96% 0in /  0.0mm
03:59 34.3 °F /  1.3 °C 33.8 °F /  1.0 °C 29.5in /  998.9hPa Calm   3.8mph /  6.1km/h 96% 0in /  0.0mm
04:04 34.2 °F /  1.2 °C 33.8 °F /  1.0 °C 29.5in /  998.9hPa SSW 2.9mph /  4.7km/h 3.8mph /  6.1km/h 96% 0in /  0.0mm
04:09 34 °F /  1.1 °C 33.8 °F /  1.0 °C 29.5in /  998.9hPa Calm   3.1mph /  5.0km/h 96% 0in /  0.0mm
04:14 34.2 °F /  1.2 °C 33.8 °F /  1.0 °C 29.5in /  998.9hPa SW 3.4mph /  5.5km/h 5.8mph /  9.3km/h 96% 0in /  0.0mm
04:19 34.5 °F /  1.4 °C 33.8 °F /  1.0 °C 29.5in /  998.9hPa SSW 6mph /  9.7km/h 7.4mph /  11.9km/h 97% 0in /  0.0mm
04:24 34.9 °F /  1.6 °C 33.8 °F /  1.0 °C 29.5in /  998.9hPa SSW 0.9mph /  1.4km/h 7.4mph /  11.9km/h 97% 0in /  0.0mm
04:29 35.1 °F /  1.7 °C 35.6 °F /  2.0 °C 29.5in /  998.9hPa SSW 5.4mph /  8.7km/h 7.2mph /  11.6km/h 98% 0in /  0.0mm
04:34 35.4 °F /  1.9 °C 35.6 °F /  2.0 °C 29.5in /  998.9hPa SSW 6.3mph /  10.1km/h 7.6mph /  12.2km/h 98% 0in /  0.0mm
04:39 35.4 °F /  1.9 °C 35.6 °F /  2.0 °C 29.5in /  998.9hPa SW 5.4mph /  8.7km/h 7.6mph /  12.2km/h 98% 0in /  0.0mm
04:44 35.6 °F /  2.0 °C 35.6 °F /  2.0 °C 29.5in /  997.9hPa Calm   7.8mph /  12.6km/h 98% 0in /  0.0mm
04:49 35.8 °F /  2.1 °C 35.6 °F /  2.0 °C 29.5in /  997.9hPa South 6mph /  9.7km/h 10.3mph /  16.6km/h 98% 0in /  0.0mm
04:54 36 °F /  2.2 °C 35.6 °F /  2.0 °C 29.5in /  997.9hPa South 6mph /  9.7km/h 10.3mph /  16.6km/h 98% 0in /  0.0mm
04:59 36 °F /  2.2 °C 35.6 °F /  2.0 °C 29.5in /  998.9hPa SSW 6mph /  9.7km/h 8.5mph /  13.7km/h 98% 0in /  0.0mm
05:04 36 °F /  2.2 °C 35.6 °F /  2.0 °C 29.5in /  998.9hPa SSW 7.6mph /  12.2km/h 8.7mph /  14.0km/h 97% 0in /  0.0mm
05:09 36 °F /  2.2 °C 35.6 °F /  2.0 °C 29.5in /  998.9hPa South 5.4mph /  8.7km/h 8.7mph /  14.0km/h 97% 0in /  0.0mm
05:14 36 °F /  2.2 °C 35.6 °F /  2.0 °C 29.5in /  998.9hPa SW 6.3mph /  10.1km/h 8.7mph /  14.0km/h 97% 0in /  0.0mm
05:19 36 °F /  2.2 °C 35.6 °F /  2.0 °C 29.5in /  998.9hPa SW 12.8mph /  20.6km/h 12.8mph /  20.6km/h 97% 0in /  0.0mm
05:25 36.1 °F /  2.3 °C 35.6 °F /  2.0 °C 29.5in /  998.9hPa SW 7.4mph /  11.9km/h 12.8mph /  20.6km/h 97% 0in /  0.0mm
05:30 36.1 °F /  2.3 °C 35.6 °F /  2.0 °C 29.5in /  998.9hPa SSW 8.1mph /  13.0km/h 11mph /  17.7km/h 97% 0in /  0.0mm
05:35 36.3 °F /  2.4 °C 35.6 °F /  2.0 °C 29.5in /  998.9hPa WSW 6.3mph /  10.1km/h 10.3mph /  16.6km/h 97% 0in /  0.0mm
05:40 36.3 °F /  2.4 °C 35.6 °F /  2.0 °C 29.5in /  998.9hPa SW 6mph /  9.7km/h 13mph /  20.9km/h 97% 0in /  0.0mm
05:45 36.7 °F /  2.6 °C 37.4 °F /  3.0 °C 29.5in /  997.9hPa WSW 6.5mph /  10.5km/h 13mph /  20.9km/h 97% 0in /  0.0mm
05:50 36.9 °F /  2.7 °C 37.4 °F /  3.0 °C 29.5in /  997.9hPa SW 11mph /  17.7km/h 13.9mph /  22.4km/h 98% 0in /  0.0mm
05:55 37 °F /  2.8 °C 37.4 °F /  3.0 °C 29.5in /  997.9hPa SSW 11.9mph /  19.1km/h 15.4mph /  24.8km/h 98% 0in /  0.0mm
06:00 37.2 °F /  2.9 °C 37.4 °F /  3.0 °C 29.5in /  998.9hPa WSW 20.1mph /  32.3km/h 22.8mph /  36.7km/h 98% 0in /  0.0mm
06:05 37 °F /  2.8 °C 37.4 °F /  3.0 °C 29.5in /  998.9hPa WSW 18.8mph /  30.2km/h 23mph /  37.0km/h 98% 0.02in /  0.5mm
06:10 36.9 °F /  2.7 °C 37.4 °F /  3.0 °C 29.5in /  998.9hPa SW 13.2mph /  21.2km/h 23mph /  37.0km/h 98% 0.03in /  0.8mm
06:15 36.9 °F /  2.7 °C 37.4 °F /  3.0 °C 29.5in /  997.9hPa WSW 10.3mph /  16.6km/h 17.4mph /  28.0km/h 98% 0.03in /  0.8mm
06:20 36.9 °F /  2.7 °C 37.4 °F /  3.0 °C 29.5in /  997.9hPa WSW 10.7mph /  17.2km/h 13.2mph /  21.2km/h 98% 0.03in /  0.8mm
06:25 37 °F /  2.8 °C 37.4 °F /  3.0 °C 29.5in /  997.9hPa WSW 8.1mph /  13.0km/h 13.2mph /  21.2km/h 98% 0.03in /  0.8mm
06:31 36.9 °F /  2.7 °C 37.4 °F /  3.0 °C 29.5in /  997.9hPa WSW 8.1mph /  13.0km/h 15.2mph /  24.5km/h 98% 0.05in /  1.3mm
06:36 36.9 °F /  2.7 °C 37.4 °F /  3.0 °C 29.5in /  997.9hPa WSW 9.2mph /  14.8km/h 15.2mph /  24.5km/h 98% 0.05in /  1.3mm
06:41 37 °F /  2.8 °C 37.4 °F /  3.0 °C 29.5in /  997.9hPa WSW 12.3mph /  19.8km/h 15.4mph /  24.8km/h 98% 0.05in /  1.3mm
06:46 36.9 °F /  2.7 °C 37.4 °F /  3.0 °C 29.5in /  997.9hPa WSW 15.2mph /  24.5km/h 15.4mph /  24.8km/h 98% 0.05in /  1.3mm
06:51 36.9 °F /  2.7 °C 37.4 °F /  3.0 °C 29.5in /  997.9hPa WSW 10.5mph /  16.9km/h 15.9mph /  25.6km/h 98% 0.05in /  1.3mm
06:56 36.7 °F /  2.6 °C 37.4 °F /  3.0 °C 29.5in /  997.9hPa SW 10.3mph /  16.6km/h 15.9mph /  25.6km/h 98% 0.06in /  1.5mm
07:01 36.9 °F /  2.7 °C 37.4 °F /  3.0 °C 29.5in /  997.9hPa SW 8.1mph /  13.0km/h 12.1mph /  19.5km/h 98% 0.05in /  1.3mm
07:06 36.9 °F /  2.7 °C 37.4 °F /  3.0 °C 29.5in /  997.9hPa WSW 8.1mph /  13.0km/h 13mph /  20.9km/h 98% 0.03in /  0.8mm
07:11 36.9 °F /  2.7 °C 37.4 °F /  3.0 °C 29.5in /  997.9hPa SSW 5.8mph /  9.3km/h 13mph /  20.9km/h 98% 0.02in /  0.5mm
07:16 36.9 °F /  2.7 °C 37.4 °F /  3.0 °C 29.5in /  997.9hPa SW 10.1mph /  16.3km/h 10.1mph /  16.3km/h 98% 0.02in /  0.5mm
07:21 36.9 °F /  2.7 °C 37.4 °F /  3.0 °C 29.5in /  997.9hPa WSW 9.4mph /  15.1km/h 10.3mph /  16.6km/h 98% 0.02in /  0.5mm
07:26 37 °F /  2.8 °C 37.4 °F /  3.0 °C 29.5in /  997.9hPa SW 6.3mph /  10.1km/h 10.3mph /  16.6km/h 98% 0.02in /  0.5mm
07:31 37 °F /  2.8 °C 37.4 °F /  3.0 °C 29.5in /  997.9hPa SW 6mph /  9.7km/h 8.7mph /  14.0km/h 98% 0.01in /  0.3mm
07:36 37.2 °F /  2.9 °C 37.4 °F /  3.0 °C 29.5in /  997.9hPa SSW 6.5mph /  10.5km/h 10.5mph /  16.9km/h 98% 0.01in /  0.3mm
07:41 37.2 °F /  2.9 °C 37.4 °F /  3.0 °C 29.5in /  997.9hPa SW 5.8mph /  9.3km/h 10.5mph /  16.9km/h 98% 0.01in /  0.3mm
07:46 37.2 °F /  2.9 °C 37.4 °F /  3.0 °C 29.5in /  998.9hPa WSW 6.3mph /  10.1km/h 8.1mph /  13.0km/h 98% 0.01in /  0.3mm
07:51 37.2 °F /  2.9 °C 37.4 °F /  3.0 °C 29.5in /  998.9hPa SW 7.4mph /  11.9km/h 8.1mph /  13.0km/h 98% 0.01in /  0.3mm
07:56 37.2 °F /  2.9 °C 37.4 °F /  3.0 °C 29.5in /  998.9hPa SSW 6mph /  9.7km/h 7.8mph /  12.6km/h 98% 0in /  0.0mm
08:01 37.2 °F /  2.9 °C 37.4 °F /  3.0 °C 29.5in /  998.9hPa WSW 6.7mph /  10.8km/h 10.3mph /  16.6km/h 98% 0in /  0.0mm
08:06 37.2 °F /  2.9 °C 37.4 °F /  3.0 °C 29.5in /  998.9hPa WSW 8.7mph /  14.0km/h 13.2mph /  21.2km/h 98% 0in /  0.0mm
08:11 37.4 °F /  3.0 °C 37.4 °F /  3.0 °C 29.5in /  998.9hPa SW 14.1mph /  22.7km/h 17.4mph /  28.0km/h 98% 0in /  0.0mm
08:16 37.4 °F /  3.0 °C 37.4 °F /  3.0 °C 29.5in /  998.9hPa SW 13.9mph /  22.4km/h 17.4mph /  28.0km/h 98% 0in /  0.0mm
08:21 37.4 °F /  3.0 °C 37.4 °F /  3.0 °C 29.5in /  998.9hPa WSW 13mph /  20.9km/h 14.3mph /  23.0km/h 98% 0in /  0.0mm
08:27 37.4 °F /  3.0 °C 37.4 °F /  3.0 °C 29.5in /  998.9hPa SW 11.2mph /  18.0km/h 15.2mph /  24.5km/h 98% 0in /  0.0mm
08:32 37.4 °F /  3.0 °C 37.4 °F /  3.0 °C 29.5in /  998.9hPa WSW 7.6mph /  12.2km/h 15.2mph /  24.5km/h 98% 0in /  0.0mm
08:37 37.4 °F /  3.0 °C 37.4 °F /  3.0 °C 29.5in /  998.9hPa WSW 11mph /  17.7km/h 13.4mph /  21.6km/h 98% 0.01in /  0.3mm
08:42 37.4 °F /  3.0 °C 37.4 °F /  3.0 °C 29.5in /  998.9hPa WSW 10.3mph /  16.6km/h 13.4mph /  21.6km/h 98% 0.01in /  0.3mm
08:47 37.4 °F /  3.0 °C 37.4 °F /  3.0 °C 29.5in /  998.9hPa WSW 7.4mph /  11.9km/h 11.2mph /  18.0km/h 98% 0.01in /  0.3mm
08:52 37.4 °F /  3.0 °C 37.4 °F /  3.0 °C 29.5in /  998.9hPa WSW 8.5mph /  13.7km/h 13.2mph /  21.2km/h 98% 0.01in /  0.3mm
08:57 37.4 °F /  3.0 °C 37.4 °F /  3.0 °C 29.5in /  998.9hPa WSW 7.6mph /  12.2km/h 13.2mph /  21.2km/h 98% 0.01in /  0.3mm
09:02 37.4 °F /  3.0 °C 37.4 °F /  3.0 °C 29.5in /  998.9hPa WSW 9.8mph /  15.8km/h 13mph /  20.9km/h 98% 0.01in /  0.3mm
09:07 37.4 °F /  3.0 °C 37.4 °F /  3.0 °C 29.5in /  998.9hPa WSW 8.7mph /  14.0km/h 11mph /  17.7km/h 98% 0.01in /  0.3mm
09:12 37.4 °F /  3.0 °C 37.4 °F /  3.0 °C 29.5in /  998.9hPa WSW 8.5mph /  13.7km/h 10.7mph /  17.2km/h 98% 0.01in /  0.3mm
09:17 37.4 °F /  3.0 °C 37.4 °F /  3.0 °C 29.5in /  997.9hPa WSW 7.6mph /  12.2km/h 13.6mph /  21.9km/h 98% 0.01in /  0.3mm
09:22 37.6 °F /  3.1 °C 37.4 °F /  3.0 °C 29.5in /  997.9hPa WSW 8.7mph /  14.0km/h 13.6mph /  21.9km/h 98% 0.01in /  0.3mm
09:27 37.6 °F /  3.1 °C 37.4 °F /  3.0 °C 29.5in /  997.9hPa WSW 7.8mph /  12.6km/h 11mph /  17.7km/h 98% 0.01in /  0.3mm
09:32 37.6 °F /  3.1 °C 37.4 °F /  3.0 °C 29.5in /  998.9hPa WSW 11mph /  17.7km/h 11mph /  17.7km/h 98% 0.01in /  0.3mm
09:38 37.6 °F /  3.1 °C 37.4 °F /  3.0 °C 29.5in /  998.9hPa WSW 7.6mph /  12.2km/h 11mph /  17.7km/h 98% 0in /  0.0mm
09:43 37.8 °F /  3.2 °C 37.4 °F /  3.0 °C 29.5in /  998.9hPa WSW 11.9mph /  19.1km/h 11.9mph /  19.1km/h 98% 0in /  0.0mm
09:48 38.1 °F /  3.4 °C 37.4 °F /  3.0 °C 29.5in /  998.9hPa WSW 7.4mph /  11.9km/h 11.9mph /  19.1km/h 98% 0in /  0.0mm
09:53 38.7 °F /  3.7 °C 39.2 °F /  4.0 °C 29.5in /  998.9hPa WSW 9.8mph /  15.8km/h 9.8mph /  15.8km/h 98% 0in /  0.0mm
09:58 38.5 °F /  3.6 °C 39.2 °F /  4.0 °C 29.5in /  998.9hPa SW 8.1mph /  13.0km/h 10.3mph /  16.6km/h 98% 0in /  0.0mm
10:03 38.3 °F /  3.5 °C 39.2 °F /  4.0 °C 29.5in /  998.9hPa SW 6.3mph /  10.1km/h 10.3mph /  16.6km/h 98% 0.01in /  0.3mm
10:08 38.5 °F /  3.6 °C 39.2 °F /  4.0 °C 29.5in /  998.9hPa WSW 10.5mph /  16.9km/h 17mph /  27.4km/h 98% 0.01in /  0.3mm
10:13 38.7 °F /  3.7 °C 39.2 °F /  4.0 °C 29.5in /  998.9hPa West 8.7mph /  14.0km/h 17mph /  27.4km/h 98% 0.01in /  0.3mm
10:18 38.7 °F /  3.7 °C 39.2 °F /  4.0 °C 29.5in /  999.9hPa WSW 9.8mph /  15.8km/h 13mph /  20.9km/h 98% 0.01in /  0.3mm
10:23 38.8 °F /  3.8 °C 39.2 °F /  4.0 °C 29.5in /  999.9hPa WSW 5.4mph /  8.7km/h 13.2mph /  21.2km/h 98% 0.01in /  0.3mm
10:29 39.2 °F /  4.0 °C 39.2 °F /  4.0 °C 29.5in /  999.9hPa West 10.1mph /  16.3km/h 13mph /  20.9km/h 98% 0.02in /  0.5mm
10:34 39.4 °F /  4.1 °C 39.2 °F /  4.0 °C 29.5in /  999.9hPa West 5.8mph /  9.3km/h 13mph /  20.9km/h 98% 0.02in /  0.5mm
10:39 39.6 °F /  4.2 °C 39.2 °F /  4.0 °C 29.5in /  999.9hPa West 7.4mph /  11.9km/h 11mph /  17.7km/h 98% 0.02in /  0.5mm
10:44 39.7 °F /  4.3 °C 39.2 °F /  4.0 °C 29.6in /  1000.9hPa West 5.6mph /  9.0km/h 14.8mph /  23.8km/h 98% 0.02in /  0.5mm
10:49 39.9 °F /  4.4 °C 39.2 °F /  4.0 °C 29.6in /  1000.9hPa SSW 2.9mph /  4.7km/h 14.8mph /  23.8km/h 98% 0.02in /  0.5mm
10:54 39.9 °F /  4.4 °C 39.2 °F /  4.0 °C 29.6in /  1000.9hPa West 5.8mph /  9.3km/h 10.7mph /  17.2km/h 98% 0.02in /  0.5mm
10:59 40.1 °F /  4.5 °C 41 °F /  5.0 °C 29.6in /  1000.9hPa West 6mph /  9.7km/h 10.7mph /  17.2km/h 98% 0.02in /  0.5mm
11:04 40.1 °F /  4.5 °C 41 °F /  5.0 °C 29.6in /  1000.9hPa WNW 4.7mph /  7.6km/h 10.7mph /  17.2km/h 98% 0.01in /  0.3mm
11:09 40.6 °F /  4.8 °C 41 °F /  5.0 °C 29.6in /  1000.9hPa West 3.6mph /  5.8km/h 10.5mph /  16.9km/h 98% 0.01in /  0.3mm
11:14 41 °F /  5.0 °C 41 °F /  5.0 °C 29.6in /  1001.9hPa West 6.3mph /  10.1km/h 10.5mph /  16.9km/h 98% 0.01in /  0.3mm
11:19 41.4 °F /  5.2 °C 41 °F /  5.0 °C 29.6in /  1001.9hPa WSW 6.5mph /  10.5km/h 12.1mph /  19.5km/h 98% 0.01in /  0.3mm
11:24 41.5 °F /  5.3 °C 42.8 °F /  6.0 °C 29.6in /  1001.9hPa WNW 6mph /  9.7km/h 12.1mph /  19.5km/h 98% 0.01in /  0.3mm
11:29 41.2 °F /  5.1 °C 41 °F /  5.0 °C 29.6in /  1000.9hPa NNW 2mph /  3.2km/h 12.1mph /  19.5km/h 98% 0in /  0.0mm
11:34 41 °F /  5.0 °C 41 °F /  5.0 °C 29.6in /  1000.9hPa WSW 1.6mph /  2.6km/h 6.5mph /  10.5km/h 98% 0in /  0.0mm
11:39 41.4 °F /  5.2 °C 41 °F /  5.0 °C 29.6in /  1000.9hPa West 3.6mph /  5.8km/h 8.5mph /  13.7km/h 98% 0in /  0.0mm
11:44 42.1 °F /  5.6 °C 42.8 °F /  6.0 °C 29.6in /  1000.9hPa West 1.3mph /  2.1km/h 8.5mph /  13.7km/h 98% 0in /  0.0mm
11:49 42.8 °F /  6.0 °C 42.8 °F /  6.0 °C 29.6in /  1000.9hPa West 9.8mph /  15.8km/h 11mph /  17.7km/h 98% 0in /  0.0mm
11:54 43.2 °F /  6.2 °C 42.8 °F /  6.0 °C 29.6in /  1000.9hPa WNW 8.5mph /  13.7km/h 11mph /  17.7km/h 97% 0in /  0.0mm
11:59 42.8 °F /  6.0 °C 42.8 °F /  6.0 °C 29.6in /  1000.9hPa NNW 8.1mph /  13.0km/h 10.5mph /  16.9km/h 95% 0in /  0.0mm
12:04 42.6 °F /  5.9 °C 41 °F /  5.0 °C 29.6in /  1000.9hPa West 7.6mph /  12.2km/h 10.1mph /  16.3km/h 92% 0in /  0.0mm
12:09 43.2 °F /  6.2 °C 41 °F /  5.0 °C 29.6in /  1000.9hPa WNW 6mph /  9.7km/h 15.4mph /  24.8km/h 88% 0in /  0.0mm
12:14 43.9 °F /  6.6 °C 41 °F /  5.0 °C 29.6in /  1000.9hPa WNW 4.3mph /  6.9km/h 15.4mph /  24.8km/h 87% 0in /  0.0mm
12:19 44.4 °F /  6.9 °C 41 °F /  5.0 °C 29.6in /  1000.9hPa West 5.4mph /  8.7km/h 10.1mph /  16.3km/h 87% 0in /  0.0mm
12:25 43.7 °F /  6.5 °C 41 °F /  5.0 °C 29.6in /  1000.9hPa WNW 4.9mph /  7.9km/h 10.3mph /  16.6km/h 85% 0in /  0.0mm
12:30 43.7 °F /  6.5 °C 41 °F /  5.0 °C 29.6in /  1000.9hPa WNW 1.1mph /  1.8km/h 9.8mph /  15.8km/h 85% 0in /  0.0mm
12:35 44.2 °F /  6.8 °C 41 °F /  5.0 °C 29.6in /  1000.9hPa WSW 5.6mph /  9.0km/h 8.7mph /  14.0km/h 86% 0in /  0.0mm
12:40 44.6 °F /  7.0 °C 41 °F /  5.0 °C 29.6in /  1000.9hPa West 9.4mph /  15.1km/h 10.3mph /  16.6km/h 84% 0in /  0.0mm
12:45 44.1 °F /  6.7 °C 39.2 °F /  4.0 °C 29.6in /  1000.9hPa West 8.7mph /  14.0km/h 14.3mph /  23.0km/h 81% 0in /  0.0mm
12:50 43.5 °F /  6.4 °C 37.4 °F /  3.0 °C 29.6in /  1000.9hPa NW 6.3mph /  10.1km/h 14.3mph /  23.0km/h 79% 0in /  0.0mm
12:55 43.2 °F /  6.2 °C 37.4 °F /  3.0 °C 29.6in /  1000.9hPa West 9.6mph /  15.4km/h 13.4mph /  21.6km/h 80% 0in /  0.0mm
13:00 42.8 °F /  6.0 °C 37.4 °F /  3.0 °C 29.6in /  1000.9hPa WNW 2.7mph /  4.3km/h 10.7mph /  17.2km/h 79% 0in /  0.0mm
13:05 42.8 °F /  6.0 °C 37.4 °F /  3.0 °C 29.6in /  1000.9hPa NNW 3.6mph /  5.8km/h 10.7mph /  17.2km/h 81% 0in /  0.0mm
13:10 43.3 °F /  6.3 °C 39.2 °F /  4.0 °C 29.6in /  1000.9hPa NW 6mph /  9.7km/h 8.5mph /  13.7km/h 83% 0in /  0.0mm
13:15 43.9 °F /  6.6 °C 39.2 °F /  4.0 °C 29.6in /  1000.9hPa NW 4.9mph /  7.9km/h 8.7mph /  14.0km/h 82% 0in /  0.0mm
13:21 43.5 °F /  6.4 °C 37.4 °F /  3.0 °C 29.6in /  1000.9hPa West 6.5mph /  10.5km/h 11mph /  17.7km/h 80% 0in /  0.0mm
13:26 44.1 °F /  6.7 °C 39.2 °F /  4.0 °C 29.6in /  1000.9hPa West 6mph /  9.7km/h 11.9mph /  19.1km/h 81% 0in /  0.0mm
13:31 45 °F /  7.2 °C 39.2 °F /  4.0 °C 29.5in /  999.9hPa WSW 3.6mph /  5.8km/h 11.9mph /  19.1km/h 80% 0in /  0.0mm
13:36 45.3 °F /  7.4 °C 39.2 °F /  4.0 °C 29.5in /  999.9hPa West 3.8mph /  6.1km/h 10.1mph /  16.3km/h 77% 0in /  0.0mm
13:41 45.7 °F /  7.6 °C 39.2 °F /  4.0 °C 29.5in /  999.9hPa North 11.9mph /  19.1km/h 12.3mph /  19.8km/h 77% 0in /  0.0mm
13:46 45.9 °F /  7.7 °C 37.4 °F /  3.0 °C 29.6in /  1000.9hPa West 8.5mph /  13.7km/h 12.5mph /  20.1km/h 74% 0in /  0.0mm
13:51 45.9 °F /  7.7 °C 37.4 °F /  3.0 °C 29.6in /  1000.9hPa NW 6.3mph /  10.1km/h 12.5mph /  20.1km/h 74% 0in /  0.0mm
13:56 46.4 °F /  8.0 °C 39.2 °F /  4.0 °C 29.6in /  1000.9hPa NW 3.1mph /  5.0km/h 12.3mph /  19.8km/h 73% 0in /  0.0mm
14:01 46.8 °F /  8.2 °C 39.2 °F /  4.0 °C 29.6in /  1000.9hPa West 12.5mph /  20.1km/h 13.2mph /  21.2km/h 74% 0in /  0.0mm
14:06 46.2 °F /  7.9 °C 37.4 °F /  3.0 °C 29.6in /  1000.9hPa WNW 10.5mph /  16.9km/h 13.2mph /  21.2km/h 71% 0in /  0.0mm
14:11 46.2 °F /  7.9 °C 37.4 °F /  3.0 °C 29.6in /  1000.9hPa NW 5.8mph /  9.3km/h 12.3mph /  19.8km/h 72% 0in /  0.0mm
14:16 46.4 °F /  8.0 °C 37.4 °F /  3.0 °C 29.5in /  999.9hPa NNW 5.8mph /  9.3km/h 10.7mph /  17.2km/h 71% 0in /  0.0mm
14:21 46.2 °F /  7.9 °C 37.4 °F /  3.0 °C 29.5in /  999.9hPa SW 7.4mph /  11.9km/h 10.3mph /  16.6km/h 69% 0in /  0.0mm
14:26 46.6 °F /  8.1 °C 37.4 °F /  3.0 °C 29.5in /  999.9hPa SSW 4.9mph /  7.9km/h 11mph /  17.7km/h 71% 0in /  0.0mm
14:31 46.8 °F /  8.2 °C 39.2 °F /  4.0 °C 29.6in /  1000.9hPa West 6.5mph /  10.5km/h 11mph /  17.7km/h 72% 0in /  0.0mm
14:36 46.4 °F /  8.0 °C 37.4 °F /  3.0 °C 29.6in /  1000.9hPa WNW 6mph /  9.7km/h 11.2mph /  18.0km/h 70% 0in /  0.0mm
14:41 46 °F /  7.8 °C 35.6 °F /  2.0 °C 29.6in /  1000.9hPa West 7.6mph /  12.2km/h 11.2mph /  18.0km/h 69% 0in /  0.0mm
14:46 46.2 °F /  7.9 °C 37.4 °F /  3.0 °C 29.6in /  1000.9hPa WSW 8.5mph /  13.7km/h 10.3mph /  16.6km/h 69% 0in /  0.0mm
14:51 46.9 °F /  8.3 °C 37.4 °F /  3.0 °C 29.6in /  1000.9hPa NW 5.8mph /  9.3km/h 13mph /  20.9km/h 68% 0in /  0.0mm
14:57 46.9 °F /  8.3 °C 35.6 °F /  2.0 °C 29.6in /  1000.9hPa WSW 8.1mph /  13.0km/h 17.7mph /  28.5km/h 63% 0in /  0.0mm
15:02 46.6 °F /  8.1 °C 33.8 °F /  1.0 °C 29.5in /  999.9hPa WSW 6.7mph /  10.8km/h 17.7mph /  28.5km/h 62% 0in /  0.0mm
15:07 46.6 °F /  8.1 °C 35.6 °F /  2.0 °C 29.5in /  999.9hPa West 8.1mph /  13.0km/h 13mph /  20.9km/h 63% 0in /  0.0mm
15:12 46.4 °F /  8.0 °C 33.8 °F /  1.0 °C 29.5in /  999.9hPa WSW 3.6mph /  5.8km/h 13mph /  20.9km/h 62% 0in /  0.0mm
15:17 47.1 °F /  8.4 °C 35.6 °F /  2.0 °C 29.5in /  999.9hPa West 8.5mph /  13.7km/h 10.7mph /  17.2km/h 64% 0in /  0.0mm
15:22 47.1 °F /  8.4 °C 35.6 °F /  2.0 °C 29.5in /  999.9hPa WSW 12.3mph /  19.8km/h 15.4mph /  24.8km/h 62% 0in /  0.0mm
15:27 46.9 °F /  8.3 °C 33.8 °F /  1.0 °C 29.5in /  999.9hPa WNW 8.5mph /  13.7km/h 15.4mph /  24.8km/h 61% 0in /  0.0mm
15:32 46.9 °F /  8.3 °C 35.6 °F /  2.0 °C 29.6in /  1000.9hPa West 10.3mph /  16.6km/h 13.4mph /  21.6km/h 63% 0in /  0.0mm
15:37 46.6 °F /  8.1 °C 33.8 °F /  1.0 °C 29.6in /  1000.9hPa NNW 3.8mph /  6.1km/h 13.2mph /  21.2km/h 61% 0in /  0.0mm
15:42 46.6 °F /  8.1 °C 33.8 °F /  1.0 °C 29.6in /  1000.9hPa West 5.6mph /  9.0km/h 13.2mph /  21.2km/h 62% 0in /  0.0mm
15:47 46.6 °F /  8.1 °C 33.8 °F /  1.0 °C 29.6in /  1000.9hPa WNW 6.5mph /  10.5km/h 13mph /  20.9km/h 62% 0in /  0.0mm
15:52 46.6 °F /  8.1 °C 35.6 °F /  2.0 °C 29.6in /  1000.9hPa West 5.8mph /  9.3km/h 13mph /  20.9km/h 64% 0in /  0.0mm
15:57 46.6 °F /  8.1 °C 35.6 °F /  2.0 °C 29.6in /  1000.9hPa West 4mph /  6.4km/h 9.4mph /  15.1km/h 63% 0in /  0.0mm
16:02 46.9 °F /  8.3 °C 35.6 °F /  2.0 °C 29.6in /  1000.9hPa West 4.9mph /  7.9km/h 8.7mph /  14.0km/h 63% 0in /  0.0mm
16:07 47.3 °F /  8.5 °C 37.4 °F /  3.0 °C 29.6in /  1000.9hPa WSW 3.6mph /  5.8km/h 8.1mph /  13.0km/h 64% 0in /  0.0mm
16:12 47.1 °F /  8.4 °C 35.6 °F /  2.0 °C 29.6in /  1000.9hPa West 12.8mph /  20.6km/h 14.3mph /  23.0km/h 63% 0in /  0.0mm
16:17 46.4 °F /  8.0 °C 33.8 °F /  1.0 °C 29.6in /  1000.9hPa West 6.5mph /  10.5km/h 14.3mph /  23.0km/h 62% 0in /  0.0mm
16:22 45.5 °F /  7.5 °C 33.8 °F /  1.0 °C 29.6in /  1000.9hPa WNW 6.9mph /  11.1km/h 13mph /  20.9km/h 64% 0in /  0.0mm
16:27 44.2 °F /  6.8 °C 33.8 °F /  1.0 °C 29.6in /  1000.9hPa WNW 3.8mph /  6.1km/h 10.5mph /  16.9km/h 66% 0in /  0.0mm
16:32 43.5 °F /  6.4 °C 33.8 °F /  1.0 °C 29.6in /  1001.9hPa WNW 4.9mph /  7.9km/h 10.5mph /  16.9km/h 70% 0in /  0.0mm
16:37 43 °F /  6.1 °C 33.8 °F /  1.0 °C 29.6in /  1001.9hPa WSW 5.8mph /  9.3km/h 11.4mph /  18.3km/h 71% 0in /  0.0mm
16:42 42.6 °F /  5.9 °C 35.6 °F /  2.0 °C 29.6in /  1001.9hPa WSW 8.7mph /  14.0km/h 11.4mph /  18.3km/h 73% 0in /  0.0mm
16:47 42.3 °F /  5.7 °C 35.6 °F /  2.0 °C 29.6in /  1001.9hPa WNW 2mph /  3.2km/h 11mph /  17.7km/h 74% 0in /  0.0mm
16:52 42.1 °F /  5.6 °C 35.6 °F /  2.0 °C 29.6in /  1001.9hPa West 8.1mph /  13.0km/h 9.8mph /  15.8km/h 74% 0in /  0.0mm
16:57 42.1 °F /  5.6 °C 35.6 °F /  2.0 °C 29.6in /  1001.9hPa West 6.3mph /  10.1km/h 9.8mph /  15.8km/h 74% 0in /  0.0mm
17:03 42.1 °F /  5.6 °C 35.6 °F /  2.0 °C 29.6in /  1001.9hPa West 3.4mph /  5.5km/h 9.8mph /  15.8km/h 74% 0in /  0.0mm
17:08 41.7 °F /  5.4 °C 35.6 °F /  2.0 °C 29.6in /  1001.9hPa West 3.4mph /  5.5km/h 5.8mph /  9.3km/h 75% 0in /  0.0mm
17:13 41.5 °F /  5.3 °C 35.6 °F /  2.0 °C 29.6in /  1001.9hPa WNW 3.8mph /  6.1km/h 5.6mph /  9.0km/h 75% 0in /  0.0mm
17:18 41.5 °F /  5.3 °C 35.6 °F /  2.0 °C 29.6in /  1001.9hPa West 2mph /  3.2km/h 4.3mph /  6.9km/h 76% 0in /  0.0mm
17:23 41.4 °F /  5.2 °C 33.8 °F /  1.0 °C 29.6in /  1001.9hPa Calm   6.3mph /  10.1km/h 76% 0in /  0.0mm
17:28 41.2 °F /  5.1 °C 33.8 °F /  1.0 °C 29.6in /  1001.9hPa West 3.1mph /  5.0km/h 6.3mph /  10.1km/h 76% 0in /  0.0mm
17:33 41 °F /  5.0 °C 33.8 °F /  1.0 °C 29.6in /  1001.9hPa Calm   5.6mph /  9.0km/h 76% 0in /  0.0mm
17:38 40.6 °F /  4.8 °C 33.8 °F /  1.0 °C 29.6in /  1001.9hPa Calm   5.6mph /  9.0km/h 77% 0in /  0.0mm
17:43 40.3 °F /  4.6 °C 33.8 °F /  1.0 °C 29.6in /  1001.9hPa West 2.9mph /  4.7km/h 4mph /  6.4km/h 77% 0in /  0.0mm
17:48 39.9 °F /  4.4 °C 33.8 °F /  1.0 °C 29.6in /  1001.9hPa West 1.3mph /  2.1km/h 3.6mph /  5.8km/h 77% 0in /  0.0mm
17:53 39.7 °F /  4.3 °C 33.8 °F /  1.0 °C 29.6in /  1001.9hPa West 2.5mph /  4.0km/h 3.8mph /  6.1km/h 78% 0in /  0.0mm
17:58 39.6 °F /  4.2 °C 33.8 °F /  1.0 °C 29.6in /  1001.9hPa West 2.5mph /  4.0km/h 3.8mph /  6.1km/h 78% 0in /  0.0mm
18:03 39.4 °F /  4.1 °C 33.8 °F /  1.0 °C 29.6in /  1001.9hPa WNW 4mph /  6.4km/h 4.9mph /  7.9km/h 79% 0in /  0.0mm
18:08 39.2 °F /  4.0 °C 33.8 °F /  1.0 °C 29.6in /  1001.9hPa West 2.9mph /  4.7km/h 5.6mph /  9.0km/h 79% 0in /  0.0mm
18:13 39 °F /  3.9 °C 33.8 °F /  1.0 °C 29.6in /  1001.9hPa WSW 4.7mph /  7.6km/h 5.6mph /  9.0km/h 80% 0in /  0.0mm
18:18 38.8 °F /  3.8 °C 33.8 °F /  1.0 °C 29.6in /  1001.9hPa WSW 2.7mph /  4.3km/h 6.3mph /  10.1km/h 80% 0in /  0.0mm
18:24 38.8 °F /  3.8 °C 33.8 °F /  1.0 °C 29.6in /  1001.9hPa WSW 3.4mph /  5.5km/h 6.3mph /  10.1km/h 81% 0in /  0.0mm
18:29 38.7 °F /  3.7 °C 33.8 °F /  1.0 °C 29.6in /  1002.9hPa West 6mph /  9.7km/h 7.4mph /  11.9km/h 81% 0in /  0.0mm
18:34 39 °F /  3.9 °C 33.8 °F /  1.0 °C 29.6in /  1002.9hPa West 1.1mph /  1.8km/h 7.4mph /  11.9km/h 82% 0in /  0.0mm
18:39 39.4 °F /  4.1 °C 33.8 °F /  1.0 °C 29.6in /  1002.9hPa WNW 2.9mph /  4.7km/h 7.2mph /  11.6km/h 82% 0in /  0.0mm
18:44 39.7 °F /  4.3 °C 35.6 °F /  2.0 °C 29.6in /  1002.9hPa NW 2.7mph /  4.3km/h 6mph /  9.7km/h 82% 0in /  0.0mm
18:49 39.9 °F /  4.4 °C 35.6 °F /  2.0 °C 29.6in /  1002.9hPa West 6.3mph /  10.1km/h 6.3mph /  10.1km/h 82% 0in /  0.0mm
18:54 39.9 °F /  4.4 °C 35.6 °F /  2.0 °C 29.6in /  1002.9hPa West 4.3mph /  6.9km/h 6.3mph /  10.1km/h 82% 0in /  0.0mm
18:59 39.9 °F /  4.4 °C 35.6 °F /  2.0 °C 29.6in /  1002.9hPa West 1.6mph /  2.6km/h 6mph /  9.7km/h 82% 0in /  0.0mm
19:04 39.7 °F /  4.3 °C 35.6 °F /  2.0 °C 29.6in /  1002.9hPa WSW 4mph /  6.4km/h 6.5mph /  10.5km/h 82% 0in /  0.0mm
19:09 39.4 °F /  4.1 °C 33.8 °F /  1.0 °C 29.6in /  1002.9hPa Calm   6.5mph /  10.5km/h 82% 0in /  0.0mm
19:14 39 °F /  3.9 °C 33.8 °F /  1.0 °C 29.6in /  1002.9hPa Calm   6.3mph /  10.1km/h 82% 0in /  0.0mm
19:19 38.8 °F /  3.8 °C 33.8 °F /  1.0 °C 29.6in /  1002.9hPa Calm   6.3mph /  10.1km/h 82% 0in /  0.0mm
19:24 38.5 °F /  3.6 °C 33.8 °F /  1.0 °C 29.6in /  1002.9hPa Calm   5.4mph /  8.7km/h 83% 0in /  0.0mm
19:29 38.5 °F /  3.6 °C 33.8 °F /  1.0 °C 29.6in /  1002.9hPa Calm   4.3mph /  6.9km/h 84% 0in /  0.0mm
19:34 38.5 °F /  3.6 °C 33.8 °F /  1.0 °C 29.6in /  1002.9hPa Calm   4.3mph /  6.9km/h 84% 0in /  0.0mm
19:39 38.7 °F /  3.7 °C 35.6 °F /  2.0 °C 29.6in /  1002.9hPa WSW 3.8mph /  6.1km/h 4.9mph /  7.9km/h 85% 0in /  0.0mm
19:44 38.8 °F /  3.8 °C 35.6 °F /  2.0 °C 29.6in /  1002.9hPa SW 4mph /  6.4km/h 4.9mph /  7.9km/h 85% 0in /  0.0mm
19:49 39.2 °F /  4.0 °C 35.6 °F /  2.0 °C 29.6in /  1002.9hPa WSW 4.7mph /  7.6km/h 6.5mph /  10.5km/h 85% 0in /  0.0mm
19:54 39.4 °F /  4.1 °C 35.6 °F /  2.0 °C 29.6in /  1002.9hPa SW 6mph /  9.7km/h 6.5mph /  10.5km/h 85% 0in /  0.0mm
19:59 39.4 °F /  4.1 °C 35.6 °F /  2.0 °C 29.6in /  1002.9hPa West 5.6mph /  9.0km/h 7.6mph /  12.2km/h 85% 0in /  0.0mm
20:04 39.6 °F /  4.2 °C 35.6 °F /  2.0 °C 29.6in /  1002.9hPa WSW 4.9mph /  7.9km/h 7.6mph /  12.2km/h 85% 0in /  0.0mm
20:09 39.6 °F /  4.2 °C 35.6 °F /  2.0 °C 29.6in /  1002.9hPa West 5.8mph /  9.3km/h 8.7mph /  14.0km/h 84% 0in /  0.0mm
20:14 39.6 °F /  4.2 °C 35.6 °F /  2.0 °C 29.6in /  1002.9hPa West 7.4mph /  11.9km/h 8.7mph /  14.0km/h 84% 0in /  0.0mm
20:19 39.7 °F /  4.3 °C 35.6 °F /  2.0 °C 29.6in /  1002.9hPa WSW 6mph /  9.7km/h 11mph /  17.7km/h 84% 0.01in /  0.3mm
20:24 39.9 °F /  4.4 °C 35.6 °F /  2.0 °C 29.6in /  1002.9hPa West 7.6mph /  12.2km/h 12.5mph /  20.1km/h 84% 0.01in /  0.3mm
20:29 40.1 °F /  4.5 °C 35.6 °F /  2.0 °C 29.6in /  1002.9hPa West 8.1mph /  13.0km/h 15.4mph /  24.8km/h 84% 0.01in /  0.3mm
20:34 40.1 °F /  4.5 °C 35.6 °F /  2.0 °C 29.6in /  1002.9hPa West 3.6mph /  5.8km/h 15.4mph /  24.8km/h 84% 0.01in /  0.3mm
20:39 39.9 °F /  4.4 °C 35.6 °F /  2.0 °C 29.6in /  1002.9hPa Calm   8.1mph /  13.0km/h 85% 0.01in /  0.3mm
20:44 39.9 °F /  4.4 °C 35.6 °F /  2.0 °C 29.6in /  1002.9hPa NW 1.6mph /  2.6km/h 5.6mph /  9.0km/h 85% 0.01in /  0.3mm
20:49 39.9 °F /  4.4 °C 35.6 °F /  2.0 °C 29.6in /  1002.9hPa West 3.6mph /  5.8km/h 6.3mph /  10.1km/h 85% 0.01in /  0.3mm
20:54 40.1 °F /  4.5 °C 37.4 °F /  3.0 °C 29.6in /  1002.9hPa WNW 7.4mph /  11.9km/h 7.8mph /  12.6km/h 85% 0.01in /  0.3mm
20:59 40.3 °F /  4.6 °C 37.4 °F /  3.0 °C 29.6in /  1001.9hPa NE 4.3mph /  6.9km/h 8.5mph /  13.7km/h 86% 0.01in /  0.3mm
21:04 40.3 °F /  4.6 °C 37.4 °F /  3.0 °C 29.6in /  1001.9hPa NNE 8.1mph /  13.0km/h 8.7mph /  14.0km/h 86% 0.01in /  0.3mm
21:09 39.9 °F /  4.4 °C 37.4 °F /  3.0 °C 29.6in /  1001.9hPa West 6mph /  9.7km/h 8.7mph /  14.0km/h 87% 0.01in /  0.3mm
21:14 39.7 °F /  4.3 °C 37.4 °F /  3.0 °C 29.6in /  1002.9hPa WNW 7.4mph /  11.9km/h 8.5mph /  13.7km/h 87% 0.01in /  0.3mm
21:19 39.6 °F /  4.2 °C 37.4 °F /  3.0 °C 29.6in /  1002.9hPa West 7.4mph /  11.9km/h 12.3mph /  19.8km/h 87% 0in /  0.0mm
21:24 39.4 °F /  4.1 °C 35.6 °F /  2.0 °C 29.6in /  1002.9hPa WNW 3.8mph /  6.1km/h 12.3mph /  19.8km/h 88% 0in /  0.0mm
21:29 39.4 °F /  4.1 °C 37.4 °F /  3.0 °C 29.6in /  1002.9hPa West 4.3mph /  6.9km/h 9.4mph /  15.1km/h 89% 0in /  0.0mm
21:34 39.2 °F /  4.0 °C 37.4 °F /  3.0 °C 29.6in /  1002.9hPa West 1.3mph /  2.1km/h 10.5mph /  16.9km/h 90% 0in /  0.0mm
21:39 39.2 °F /  4.0 °C 37.4 °F /  3.0 °C 29.6in /  1002.9hPa West 7.4mph /  11.9km/h 10.5mph /  16.9km/h 92% 0in /  0.0mm
21:44 39 °F /  3.9 °C 37.4 °F /  3.0 °C 29.6in /  1002.9hPa West 5.4mph /  8.7km/h 8.9mph /  14.3km/h 93% 0in /  0.0mm
21:49 38.8 °F /  3.8 °C 37.4 °F /  3.0 °C 29.6in /  1002.9hPa West 4.9mph /  7.9km/h 9.4mph /  15.1km/h 93% 0in /  0.0mm
21:55 38.8 °F /  3.8 °C 37.4 °F /  3.0 °C 29.6in /  1002.9hPa WSW 4.3mph /  6.9km/h 9.4mph /  15.1km/h 93% 0in /  0.0mm
22:00 38.7 °F /  3.7 °C 37.4 °F /  3.0 °C 29.6in /  1002.9hPa West 3.6mph /  5.8km/h 7.8mph /  12.6km/h 94% 0in /  0.0mm
22:05 38.7 °F /  3.7 °C 37.4 °F /  3.0 °C 29.6in /  1002.9hPa West 3.8mph /  6.1km/h 8.1mph /  13.0km/h 94% 0in /  0.0mm
22:10 38.7 °F /  3.7 °C 37.4 °F /  3.0 °C 29.6in /  1002.9hPa West 1.6mph /  2.6km/h 8.1mph /  13.0km/h 95% 0in /  0.0mm
22:15 38.8 °F /  3.8 °C 37.4 °F /  3.0 °C 29.6in /  1002.9hPa West 8.1mph /  13.0km/h 8.1mph /  13.0km/h 95% 0in /  0.0mm
22:20 39 °F /  3.9 °C 39.2 °F /  4.0 °C 29.6in /  1002.9hPa WSW 4.9mph /  7.9km/h 11mph /  17.7km/h 96% 0in /  0.0mm
22:25 39.2 °F /  4.0 °C 39.2 °F /  4.0 °C 29.6in /  1002.9hPa West 7.2mph /  11.6km/h 11mph /  17.7km/h 96% 0in /  0.0mm
22:30 39.2 °F /  4.0 °C 39.2 °F /  4.0 °C 29.6in /  1002.9hPa SSW 10.5mph /  16.9km/h 12.5mph /  20.1km/h 97% 0in /  0.0mm
22:35 39.4 °F /  4.1 °C 39.2 °F /  4.0 °C 29.6in /  1002.9hPa WSW 3.8mph /  6.1km/h 12.5mph /  20.1km/h 98% 0in /  0.0mm
22:40 39.4 °F /  4.1 °C 39.2 °F /  4.0 °C 29.6in /  1002.9hPa NW 5.8mph /  9.3km/h 11.2mph /  18.0km/h 98% 0in /  0.0mm
22:45 39.4 °F /  4.1 °C 39.2 °F /  4.0 °C 29.6in /  1002.9hPa West 8.5mph /  13.7km/h 9.4mph /  15.1km/h 98% 0in /  0.0mm
22:50 39.4 °F /  4.1 °C 39.2 °F /  4.0 °C 29.6in /  1002.9hPa WSW 3.6mph /  5.8km/h 8.7mph /  14.0km/h 98% 0in /  0.0mm
22:55 39.6 °F /  4.2 °C 39.2 °F /  4.0 °C 29.6in /  1002.9hPa NNW 10.1mph /  16.3km/h 10.1mph /  16.3km/h 98% 0in /  0.0mm
23:00 39.6 °F /  4.2 °C 39.2 °F /  4.0 °C 29.6in /  1003.9hPa West 4.3mph /  6.9km/h 10.1mph /  16.3km/h 98% 0in /  0.0mm
23:05 39.4 °F /  4.1 °C 39.2 °F /  4.0 °C 29.6in /  1003.9hPa WNW 10.1mph /  16.3km/h 12.1mph /  19.5km/h 98% 0in /  0.0mm
23:10 39.2 °F /  4.0 °C 39.2 °F /  4.0 °C 29.6in /  1003.9hPa NW 4mph /  6.4km/h 12.1mph /  19.5km/h 98% 0.01in /  0.3mm
23:15 39 °F /  3.9 °C 39.2 °F /  4.0 °C 29.6in /  1002.9hPa NW 7.6mph /  12.2km/h 11mph /  17.7km/h 98% 0.01in /  0.3mm
23:20 38.8 °F /  3.8 °C 39.2 °F /  4.0 °C 29.6in /  1002.9hPa West 6.5mph /  10.5km/h 11mph /  17.7km/h 98% 0.01in /  0.3mm
23:25 38.8 °F /  3.8 °C 39.2 °F /  4.0 °C 29.6in /  1002.9hPa WNW 4mph /  6.4km/h 9.8mph /  15.8km/h 98% 0.01in /  0.3mm
23:30 38.7 °F /  3.7 °C 39.2 °F /  4.0 °C 29.6in /  1003.9hPa WSW 3.4mph /  5.5km/h 10.7mph /  17.2km/h 98% 0.01in /  0.3mm
23:35 38.7 °F /  3.7 °C 39.2 °F /  4.0 °C 29.6in /  1003.9hPa WSW 4.3mph /  6.9km/h 10.7mph /  17.2km/h 98% 0.01in /  0.3mm
23:40 38.5 °F /  3.6 °C 39.2 °F /  4.0 °C 29.6in /  1003.9hPa WNW 11mph /  17.7km/h 11mph /  17.7km/h 98% 0.01in /  0.3mm
23:45 38.3 °F /  3.5 °C 39.2 °F /  4.0 °C 29.6in /  1002.9hPa NE 4.7mph /  7.6km/h 11mph /  17.7km/h 98% 0.03in /  0.8mm
23:50 38.1 °F /  3.4 °C 37.4 °F /  3.0 °C 29.6in /  1002.9hPa NNW 8.5mph /  13.7km/h 11.2mph /  18.0km/h 98% 0.03in /  0.8mm
23:55 38.1 °F /  3.4 °C 37.4 °F /  3.0 °C 29.6in /  1002.9hPa West 3.1mph /  5.0km/h 11.2mph /  18.0km/h 98% 0.04in /  1.0mm
Données Historique de Météo Turbie

Mise a jour : 22/05/2018 21:44:16
Généré par Cumulus 1.9.4 (1099)